createdAt,value
2022-10-30T00:01:18.811Z,98717.31
2022-10-30T00:03:45.518Z,98710.41
2022-10-30T00:06:12.203Z,98707.09
2022-10-30T00:08:38.898Z,98700.69
2022-10-30T00:11:10.507Z,98701.47
2022-10-30T00:13:37.884Z,98701.25
2022-10-30T00:16:07.168Z,98699.81
2022-10-30T00:18:36.723Z,98697.72
2022-10-30T00:21:08.475Z,98697.88
2022-10-30T00:23:35.356Z,98700.22
2022-10-30T00:26:06.303Z,98696.03
2022-10-30T00:28:33.465Z,98699.09
2022-10-30T00:31:04.506Z,98709.06
2022-10-30T00:33:31.355Z,98693.00
2022-10-30T00:35:58.416Z,98701.91
2022-10-30T00:38:25.025Z,98705.50
2022-10-30T00:40:51.860Z,98711.09
2022-10-30T00:43:39.543Z,98698.44
2022-10-30T00:46:24.199Z,98701.25
2022-10-30T00:49:06.079Z,98695.09
2022-10-30T00:51:33.595Z,98698.94
2022-10-30T00:54:03.170Z,98712.59
2022-10-30T00:56:30.750Z,98700.47
2022-10-30T00:59:04.040Z,98708.97
2022-10-30T01:01:37.931Z,98709.63
2022-10-30T01:04:06.485Z,98704.56
2022-10-30T01:06:37.296Z,98706.41
2022-10-30T01:09:04.515Z,98709.03
2022-10-30T01:11:31.656Z,98707.09
2022-10-30T01:14:03.526Z,98718.56
2022-10-30T01:17:07.466Z,98710.78
2022-10-30T01:19:48.953Z,98702.69
2022-10-30T01:22:43.378Z,98695.06
2022-10-30T01:25:56.371Z,98697.25
2022-10-30T01:28:40.890Z,98693.94
2022-10-30T01:31:36.086Z,98686.91
2022-10-30T01:34:26.346Z,98692.94
2022-10-30T01:37:06.590Z,98692.06
2022-10-30T01:39:38.220Z,98691.25
2022-10-30T01:42:48.323Z,98700.13
2022-10-30T01:45:37.098Z,98706.09
2022-10-30T01:48:32.099Z,98701.03
2022-10-30T01:51:20.367Z,98692.28
2022-10-30T01:53:58.183Z,98695.81
2022-10-30T01:56:49.778Z,98691.69
2022-10-30T01:59:38.952Z,98683.72
2022-10-30T02:02:07.980Z,98692.88
2022-10-30T02:04:35.020Z,98686.59
2022-10-30T02:07:02.036Z,98684.88
2022-10-30T02:09:29.137Z,98683.28
2022-10-30T02:11:56.324Z,98679.72
2022-10-30T02:14:57.920Z,98678.22
2022-10-30T02:17:25.688Z,98682.16
2022-10-30T02:19:52.430Z,98675.28
2022-10-30T02:22:19.443Z,98681.94
2022-10-30T02:24:46.158Z,98686.41
2022-10-30T02:27:13.205Z,98679.34
2022-10-30T02:29:40.919Z,98684.22
2022-10-30T02:32:07.661Z,98683.94
2022-10-30T02:34:35.092Z,98675.75
2022-10-30T02:37:01.824Z,98670.59
2022-10-30T02:39:28.511Z,98675.16
2022-10-30T02:41:55.394Z,98660.94
2022-10-30T02:44:22.212Z,98656.63
2022-10-30T02:46:49.052Z,98662.88
2022-10-30T02:49:15.653Z,98665.53
2022-10-30T02:51:42.318Z,98665.84
2022-10-30T02:54:09.688Z,98659.03
2022-10-30T02:56:40.780Z,98660.03
2022-10-30T02:59:07.638Z,98659.19
2022-10-30T03:01:34.400Z,98658.47
2022-10-30T03:04:01.723Z,98656.78
2022-10-30T03:06:28.557Z,98661.06
2022-10-30T03:08:57.992Z,98658.34
2022-10-30T03:11:24.677Z,98665.47
2022-10-30T03:13:54.105Z,98658.53
2022-10-30T03:16:23.584Z,98660.56
2022-10-30T03:18:52.162Z,98659.75
2022-10-30T03:21:21.763Z,98663.47
2022-10-30T03:23:50.528Z,98673.41
2022-10-30T03:26:19.152Z,98671.63
2022-10-30T03:28:56.377Z,98676.94
2022-10-30T03:31:23.028Z,98675.56
2022-10-30T03:34:07.221Z,98673.84
2022-10-30T03:36:33.913Z,98674.78
2022-10-30T03:39:00.720Z,98683.69
2022-10-30T03:41:27.796Z,98683.88
2022-10-30T03:43:54.496Z,98676.81
2022-10-30T03:46:21.584Z,98684.13
2022-10-30T03:48:50.398Z,98688.69
2022-10-30T03:51:17.774Z,98684.28
2022-10-30T03:53:46.575Z,98678.44
2022-10-30T03:56:13.517Z,98688.38
2022-10-30T03:58:46.280Z,98681.38
2022-10-30T04:01:15.286Z,98677.34
2022-10-30T04:03:46.375Z,98687.41
2022-10-30T04:06:13.152Z,98675.81
2022-10-30T04:08:40.023Z,98684.03
2022-10-30T04:11:06.770Z,98683.34
2022-10-30T04:13:33.481Z,98678.44
2022-10-30T04:16:00.746Z,98680.94
2022-10-30T04:18:27.475Z,98676.72
2022-10-30T04:20:55.062Z,98681.44
2022-10-30T04:23:22.612Z,98682.31
2022-10-30T04:25:49.575Z,98679.66
2022-10-30T04:28:16.901Z,98687.75
2022-10-30T04:30:43.975Z,98680.56
2022-10-30T04:33:12.116Z,98676.13
2022-10-30T04:35:39.928Z,98685.91
2022-10-30T04:38:14.091Z,98683.41
2022-10-30T04:40:43.788Z,98684.34
2022-10-30T04:43:13.064Z,98690.78
2022-10-30T04:45:41.479Z,98686.81
2022-10-30T04:48:16.385Z,98682.66
2022-10-30T04:50:44.016Z,98687.22
2022-10-30T04:53:16.548Z,98685.59
2022-10-30T04:55:44.896Z,98682.41
2022-10-30T04:58:13.260Z,98692.34
2022-10-30T05:00:42.602Z,98682.66
2022-10-30T05:03:29.535Z,98689.69
2022-10-30T05:06:06.176Z,98682.78
2022-10-30T05:08:33.844Z,98682.72
2022-10-30T05:11:05.670Z,98685.28
2022-10-30T05:13:34.191Z,98687.84
2022-10-30T05:16:00.867Z,98686.09
2022-10-30T05:18:27.510Z,98677.34
2022-10-30T05:20:54.183Z,98670.25
2022-10-30T05:23:22.283Z,98665.69
2022-10-30T05:25:48.960Z,98668.13
2022-10-30T05:28:16.163Z,98670.59
2022-10-30T05:30:52.212Z,98675.69
2022-10-30T05:33:35.890Z,98670.03
2022-10-30T05:36:02.710Z,98666.19
2022-10-30T05:38:29.343Z,98665.06
2022-10-30T05:40:56.121Z,98658.59
2022-10-30T05:43:23.109Z,98666.50
2022-10-30T05:45:50.506Z,98664.72
2022-10-30T05:48:18.195Z,98660.25
2022-10-30T05:50:46.499Z,98668.22
2022-10-30T05:53:22.816Z,98661.94
2022-10-30T05:55:50.636Z,98669.81
2022-10-30T05:58:21.920Z,98669.66
2022-10-30T06:00:49.212Z,98675.22
2022-10-30T06:03:23.472Z,98676.50
2022-10-30T06:05:50.872Z,98682.09
2022-10-30T06:08:18.154Z,98684.09
2022-10-30T06:10:46.353Z,98682.44
2022-10-30T06:13:16.064Z,98690.50
2022-10-30T06:15:50.375Z,98679.78
2022-10-30T06:18:17.132Z,98676.06
2022-10-30T06:20:46.231Z,98677.84
2022-10-30T06:23:31.005Z,98676.88
2022-10-30T06:26:08.170Z,98677.72
2022-10-30T06:28:40.675Z,98680.38
2022-10-30T06:31:10.048Z,98671.31
2022-10-30T06:33:38.027Z,98668.63
2022-10-30T06:36:05.102Z,98669.28
2022-10-30T06:38:32.912Z,98666.56
2022-10-30T06:41:00.314Z,98677.22
2022-10-30T06:43:31.664Z,98671.81
2022-10-30T06:46:03.318Z,98676.19
2022-10-30T06:48:31.687Z,98681.53
2022-10-30T06:51:00.851Z,98676.91
2022-10-30T06:53:29.814Z,98679.53
2022-10-30T06:56:09.989Z,98683.22
2022-10-30T06:59:11.699Z,98679.81
2022-10-30T07:01:55.756Z,98679.63
2022-10-30T07:04:26.615Z,98687.38
2022-10-30T07:06:55.476Z,98681.69
2022-10-30T07:09:22.135Z,98689.13
2022-10-30T07:11:54.389Z,98689.34
2022-10-30T07:14:38.550Z,98686.78
2022-10-30T07:17:16.495Z,98692.06
2022-10-30T07:19:51.829Z,98680.38
2022-10-30T07:22:18.646Z,98695.50
2022-10-30T07:24:49.863Z,98692.03
2022-10-30T07:27:47.609Z,98693.38
2022-10-30T07:30:46.718Z,98700.75
2022-10-30T07:33:26.038Z,98698.88
2022-10-30T07:35:55.707Z,98695.88
2022-10-30T07:38:40.851Z,98684.28
2022-10-30T07:41:22.551Z,98680.44
2022-10-30T07:43:51.859Z,98682.59
2022-10-30T07:46:36.351Z,98683.38
2022-10-30T07:49:31.418Z,98685.88
2022-10-30T07:52:02.382Z,98681.25
2022-10-30T07:54:29.074Z,98686.91
2022-10-30T07:56:58.981Z,98691.03
2022-10-30T07:59:44.306Z,98696.94
2022-10-30T08:02:39.736Z,98697.31
2022-10-30T08:05:17.628Z,98703.84
2022-10-30T08:08:19.503Z,98693.72
2022-10-30T08:10:46.731Z,98701.88
2022-10-30T08:13:14.884Z,98694.03
2022-10-30T08:15:44.801Z,98701.75
2022-10-30T08:18:11.634Z,98690.16
2022-10-30T08:20:40.927Z,98688.88
2022-10-30T08:23:08.691Z,98694.59
2022-10-30T08:25:35.461Z,98686.38
2022-10-30T08:28:04.845Z,98685.50
2022-10-30T08:30:37.446Z,98682.50
2022-10-30T08:33:07.576Z,98675.88
2022-10-30T08:35:56.513Z,98683.66
2022-10-30T08:38:24.463Z,98692.94
2022-10-30T08:41:11.381Z,98675.13
2022-10-30T08:43:44.382Z,98675.91
2022-10-30T08:46:11.141Z,98673.47
2022-10-30T08:48:37.823Z,98663.03
2022-10-30T08:51:04.595Z,98652.31
2022-10-30T08:53:35.913Z,98637.06
2022-10-30T08:56:07.804Z,98635.22
2022-10-30T08:58:46.831Z,98630.50
2022-10-30T09:01:14.162Z,98628.06
2022-10-30T09:04:07.162Z,98626.19
2022-10-30T09:06:53.817Z,98632.25
2022-10-30T09:09:39.339Z,98617.81
2022-10-30T09:12:06.975Z,98619.53
2022-10-30T09:14:40.249Z,98615.28
2022-10-30T09:17:08.718Z,98623.53
2022-10-30T09:19:36.887Z,98618.84
2022-10-30T09:22:04.240Z,98618.53
2022-10-30T09:24:31.764Z,98631.22
2022-10-30T09:26:58.415Z,98634.63
2022-10-30T09:29:26.875Z,98628.22
2022-10-30T09:32:28.875Z,98615.97
2022-10-30T09:35:08.176Z,98615.28
2022-10-30T09:37:40.123Z,98619.06
2022-10-30T09:40:22.160Z,98617.84
2022-10-30T09:42:50.506Z,98617.34
2022-10-30T09:45:33.486Z,98618.50
2022-10-30T09:48:02.066Z,98613.31
2022-10-30T09:50:48.104Z,98615.41
2022-10-30T09:53:38.599Z,98610.63
2022-10-30T09:56:31.804Z,98602.25
2022-10-30T09:59:04.506Z,98619.63
2022-10-30T10:01:41.243Z,98612.47
2022-10-30T10:05:00.171Z,98607.72
2022-10-30T10:07:52.412Z,98620.03
2022-10-30T10:11:06.470Z,98620.63
2022-10-30T10:13:47.822Z,98613.59
2022-10-30T10:16:22.068Z,98622.78
2022-10-30T10:18:58.677Z,98629.44
2022-10-30T10:21:27.340Z,98626.72
2022-10-30T10:24:03.490Z,98625.09
2022-10-30T10:26:30.125Z,98619.56
2022-10-30T10:29:32.089Z,98629.53
2022-10-30T10:32:27.048Z,98632.94
2022-10-30T10:35:15.867Z,98624.38
2022-10-30T10:37:56.437Z,98627.97
2022-10-30T10:40:51.404Z,98633.34
2022-10-30T10:43:53.750Z,98622.47
2022-10-30T10:46:23.392Z,98635.94
2022-10-30T10:48:55.791Z,98623.19
2022-10-30T10:51:30.296Z,98621.28
2022-10-30T10:54:11.233Z,98622.66
2022-10-30T10:56:42.477Z,98624.31
2022-10-30T10:59:34.620Z,98626.09
2022-10-30T11:02:37.290Z,98625.13
2022-10-30T11:05:36.391Z,98633.59
2022-10-30T11:08:25.184Z,98623.34
2022-10-30T11:10:58.035Z,98614.31
2022-10-30T11:13:31.744Z,98618.88
2022-10-30T11:16:30.646Z,98617.75
2022-10-30T11:19:03.447Z,98619.09
2022-10-30T11:21:35.258Z,98605.84
2022-10-30T11:24:02.033Z,98599.91
2022-10-30T11:26:32.024Z,98605.84
2022-10-30T11:28:58.866Z,98603.38
2022-10-30T11:31:37.927Z,98600.59
2022-10-30T11:34:21.548Z,98595.28
2022-10-30T11:36:49.989Z,98604.88
2022-10-30T11:39:19.354Z,98597.59
2022-10-30T11:42:19.057Z,98600.34
2022-10-30T11:44:49.435Z,98608.19
2022-10-30T11:47:19.036Z,98587.63
2022-10-30T11:49:51.398Z,98598.88
2022-10-30T11:52:23.552Z,98596.78
2022-10-30T11:54:56.518Z,98599.94
2022-10-30T11:57:33.856Z,98591.63
2022-10-30T12:00:05.237Z,98596.44
2022-10-30T12:02:43.732Z,98605.53
2022-10-30T12:05:25.636Z,98611.47
2022-10-30T12:07:53.440Z,98604.06
2022-10-30T12:10:29.168Z,98607.69
2022-10-30T12:12:56.803Z,98612.19
2022-10-30T12:15:27.730Z,98609.59
2022-10-30T12:17:59.846Z,98617.19
2022-10-30T12:20:28.108Z,98606.72
2022-10-30T12:22:55.526Z,98608.78
2022-10-30T12:25:26.803Z,98618.81
2022-10-30T12:28:13.351Z,98617.88
2022-10-30T12:30:54.362Z,98622.19
2022-10-30T12:33:40.527Z,98623.88
2022-10-30T12:36:16.803Z,98622.34
2022-10-30T12:38:48.092Z,98628.16
2022-10-30T12:41:29.900Z,98616.97
2022-10-30T12:44:04.368Z,98615.50
2022-10-30T12:46:43.089Z,98613.53
2022-10-30T12:49:25.616Z,98615.81
2022-10-30T12:52:01.197Z,98618.97
2022-10-30T12:54:44.397Z,98618.81
2022-10-30T12:57:15.707Z,98622.34
2022-10-30T12:59:57.641Z,98620.53
2022-10-30T13:03:21.570Z,98617.53
2022-10-30T13:08:34.250Z,98612.66
2022-10-30T13:11:04.191Z,98612.31
2022-10-30T13:13:42.181Z,98611.44
2022-10-30T13:16:15.999Z,98608.53
2022-10-30T13:18:42.680Z,98608.53
2022-10-30T13:21:12.020Z,98603.50
2022-10-30T13:24:00.345Z,98607.66
2022-10-30T13:26:35.873Z,98612.72
2022-10-30T13:29:10.061Z,98609.75
2022-10-30T13:32:07.897Z,98611.53
2022-10-30T13:34:48.566Z,98604.34
2022-10-30T13:37:27.118Z,98610.09
2022-10-30T13:40:31.413Z,98600.94
2022-10-30T13:43:43.509Z,98601.28
2022-10-30T13:46:47.783Z,98605.84
2022-10-30T13:49:52.209Z,98607.47
2022-10-30T13:52:21.080Z,98595.53
2022-10-30T13:55:05.605Z,98608.50
2022-10-30T13:57:32.165Z,98607.06
2022-10-30T14:00:13.041Z,98604.03
2022-10-30T14:03:04.801Z,98607.38
2022-10-30T14:05:36.595Z,98601.06
2022-10-30T14:08:13.787Z,98608.06
2022-10-30T14:10:46.456Z,98604.44
2022-10-30T14:13:44.234Z,98608.53
2022-10-30T14:16:33.154Z,98611.13
2022-10-30T14:19:08.935Z,98605.81
2022-10-30T14:21:44.906Z,98605.97
2022-10-30T14:24:33.115Z,98603.78
2022-10-30T14:27:05.492Z,98603.63
2022-10-30T14:29:35.472Z,98600.66
2022-10-30T14:32:23.630Z,98598.06
2022-10-30T14:34:50.293Z,98603.47
2022-10-30T14:37:37.153Z,98606.41
2022-10-30T14:40:31.579Z,98607.13
2022-10-30T14:43:03.855Z,98612.28
2022-10-30T14:45:43.685Z,98611.44
2022-10-30T14:48:30.395Z,98621.88
2022-10-30T14:51:30.112Z,98618.31
2022-10-30T14:54:04.428Z,98626.72
2022-10-30T14:56:50.398Z,98623.50
2022-10-30T14:59:16.961Z,98625.56
2022-10-30T15:02:02.453Z,98631.09
2022-10-30T15:05:02.680Z,98628.84
2022-10-30T15:07:43.869Z,98627.22
2022-10-30T15:10:19.265Z,98624.28
2022-10-30T15:12:51.632Z,98637.50
2022-10-30T15:15:19.505Z,98633.00
2022-10-30T15:17:56.271Z,98636.56
2022-10-30T15:20:25.696Z,98639.34
2022-10-30T15:22:57.308Z,98640.19
2022-10-30T15:25:33.370Z,98637.66
2022-10-30T15:28:00.992Z,98626.66
2022-10-30T15:30:28.268Z,98631.75
2022-10-30T15:32:54.924Z,98640.72
2022-10-30T15:35:28.970Z,98643.13
2022-10-30T15:38:01.617Z,98634.69
2022-10-30T15:40:29.871Z,98648.06
2022-10-30T15:42:59.401Z,98649.34
2022-10-30T15:45:35.274Z,98652.69
2022-10-30T15:48:22.281Z,98654.75
2022-10-30T15:50:59.885Z,98649.44
2022-10-30T15:53:38.499Z,98652.16
2022-10-30T15:56:11.762Z,98658.19
2022-10-30T15:58:42.788Z,98657.63
2022-10-30T16:01:24.217Z,98653.81
2022-10-30T16:03:53.269Z,98666.38
2022-10-30T16:06:20.366Z,98663.22
2022-10-30T16:08:48.170Z,98668.69
2022-10-30T16:11:15.979Z,98669.09
2022-10-30T16:13:42.877Z,98668.81
2022-10-30T16:16:39.128Z,98674.16
2022-10-30T16:19:05.863Z,98667.22
2022-10-30T16:21:34.910Z,98676.72
2022-10-30T16:24:04.415Z,98681.56
2022-10-30T16:26:37.126Z,98681.41
2022-10-30T16:29:12.983Z,98690.13
2022-10-30T16:31:43.049Z,98688.53
2022-10-30T16:34:18.348Z,98696.22
2022-10-30T16:36:45.306Z,98692.72
2022-10-30T16:39:16.913Z,98697.09
2022-10-30T16:41:44.695Z,98704.16
2022-10-30T16:44:19.042Z,98699.09
2022-10-30T16:46:56.084Z,98694.19
2022-10-30T16:49:29.523Z,98707.16
2022-10-30T16:52:04.294Z,98703.19
2022-10-30T16:54:39.569Z,98706.16
2022-10-30T16:57:27.102Z,98711.91
2022-10-30T16:59:55.558Z,98713.44
2022-10-30T17:02:26.618Z,98716.66
2022-10-30T17:04:59.092Z,98719.38
2022-10-30T17:07:26.604Z,98715.78
2022-10-30T17:09:56.739Z,98720.78
2022-10-30T17:12:28.953Z,98717.03
2022-10-30T17:15:02.166Z,98727.31
2022-10-30T17:17:30.723Z,98732.75
2022-10-30T17:20:18.891Z,98737.63
2022-10-30T17:22:47.696Z,98738.94
2022-10-30T17:25:30.336Z,98738.94
2022-10-30T17:27:57.543Z,98745.38
2022-10-30T17:30:39.289Z,98746.59
2022-10-30T17:33:25.897Z,98747.59
2022-10-30T17:38:24.565Z,98737.41
2022-10-30T17:40:51.278Z,98747.38
2022-10-30T17:43:18.090Z,98749.97
2022-10-30T17:45:44.931Z,98759.31
2022-10-30T17:48:14.316Z,98752.09
2022-10-30T17:50:42.152Z,98754.38
2022-10-30T17:53:23.909Z,98756.09
2022-10-30T17:56:02.208Z,98759.06
2022-10-30T17:58:30.907Z,98752.72
2022-10-30T18:00:58.901Z,98762.09
2022-10-30T18:03:25.979Z,98762.97
2022-10-30T18:05:53.726Z,98756.72
2022-10-30T18:08:20.445Z,98776.56
2022-10-30T18:10:47.176Z,98768.75
2022-10-30T18:13:15.137Z,98774.38
2022-10-30T18:15:44.996Z,98779.72
2022-10-30T18:18:11.789Z,98783.56
2022-10-30T18:20:38.810Z,98780.41
2022-10-30T18:23:46.347Z,98784.22
2022-10-30T18:26:04.222Z,98791.00
2022-10-30T18:28:30.920Z,98793.31
2022-10-30T18:30:58.756Z,98800.22
2022-10-30T18:33:25.413Z,98801.47
2022-10-30T18:35:52.183Z,98806.25
2022-10-30T18:38:18.896Z,98796.63
2022-10-30T18:40:47.334Z,98796.69
2022-10-30T18:43:14.664Z,98801.84
2022-10-30T18:45:43.750Z,98797.75
2022-10-30T18:48:11.493Z,98808.56
2022-10-30T18:50:38.538Z,98807.78
2022-10-30T18:53:17.970Z,98810.31
2022-10-30T18:55:44.807Z,98805.84
2022-10-30T18:58:11.748Z,98806.72
2022-10-30T19:01:06.038Z,98814.09
2022-10-30T19:03:26.525Z,98820.78
2022-10-30T19:05:53.175Z,98817.13
2022-10-30T19:08:19.827Z,98827.94
2022-10-30T19:10:47.538Z,98828.03
2022-10-30T19:13:22.168Z,98831.63
2022-10-30T19:15:59.856Z,98834.44
2022-10-30T19:18:28.740Z,98826.72
2022-10-30T19:21:04.337Z,98829.66
2022-10-30T19:23:32.739Z,98828.06
2022-10-30T19:25:59.418Z,98827.47
2022-10-30T19:28:26.095Z,98828.50
2022-10-30T19:30:54.649Z,98827.03
2022-10-30T19:33:23.175Z,98823.75
2022-10-30T19:35:57.926Z,98831.31
2022-10-30T19:38:24.693Z,98833.19
2022-10-30T19:40:51.607Z,98831.13
2022-10-30T19:43:18.295Z,98832.91
2022-10-30T19:45:45.006Z,98831.13
2022-10-30T19:48:24.724Z,98833.78
2022-10-30T19:51:01.128Z,98832.91
2022-10-30T19:53:27.796Z,98836.41
2022-10-30T19:55:54.545Z,98835.72
2022-10-30T19:58:25.139Z,98833.44
2022-10-30T20:00:54.275Z,98829.94
2022-10-30T20:03:21.225Z,98834.06
2022-10-30T20:05:52.259Z,98829.91
2022-10-30T20:08:20.486Z,98823.28
2022-10-30T20:10:58.295Z,98827.00
2022-10-30T20:13:26.336Z,98828.81
2022-10-30T20:15:54.795Z,98826.13
2022-10-30T20:18:25.044Z,98833.41
2022-10-30T20:20:56.370Z,98832.34
2022-10-30T20:23:23.965Z,98840.47
2022-10-30T20:25:58.593Z,98836.91
2022-10-30T20:28:45.492Z,98837.97
2022-10-30T20:31:12.790Z,98834.88
2022-10-30T20:33:39.644Z,98845.03
2022-10-30T20:36:06.498Z,98849.63
2022-10-30T20:38:34.393Z,98848.00
2022-10-30T20:41:04.062Z,98844.28
2022-10-30T20:43:38.741Z,98843.50
2022-10-30T20:46:09.336Z,98853.34
2022-10-30T20:48:37.768Z,98853.56
2022-10-30T20:51:04.843Z,98844.88
2022-10-30T20:53:31.594Z,98850.59
2022-10-30T20:55:58.209Z,98858.91
2022-10-30T20:58:24.994Z,98856.56
2022-10-30T21:00:55.291Z,98858.50
2022-10-30T21:03:22.055Z,98850.66
2022-10-30T21:05:55.679Z,98853.41
2022-10-30T21:08:22.609Z,98851.91
2022-10-30T21:10:49.225Z,98852.09
2022-10-30T21:13:15.874Z,98859.41
2022-10-30T21:15:44.383Z,98855.13
2022-10-30T21:18:13.017Z,98860.06
2022-10-30T21:20:40.911Z,98856.75
2022-10-30T21:23:08.278Z,98852.63
2022-10-30T21:25:35.647Z,98864.25
2022-10-30T21:28:02.731Z,98863.50
2022-10-30T21:30:29.465Z,98866.09
2022-10-30T21:32:56.255Z,98866.84
2022-10-30T21:35:22.950Z,98872.84
2022-10-30T21:37:49.600Z,98857.03
2022-10-30T21:40:16.331Z,98860.78
2022-10-30T21:42:42.981Z,98864.44
2022-10-30T21:45:09.963Z,98857.50
2022-10-30T21:47:36.626Z,98854.06
2022-10-30T21:50:07.609Z,98864.03
2022-10-30T21:52:34.739Z,98864.84
2022-10-30T21:55:01.606Z,98867.41
2022-10-30T21:57:28.931Z,98862.41
2022-10-30T21:59:57.693Z,98858.09
2022-10-30T22:02:27.348Z,98860.63
2022-10-30T22:04:53.980Z,98858.81
2022-10-30T22:07:20.807Z,98863.41
2022-10-30T22:09:47.437Z,98863.44
2022-10-30T22:12:14.069Z,98855.41
2022-10-30T22:14:40.711Z,98858.81
2022-10-30T22:17:08.404Z,98859.97
2022-10-30T22:19:35.107Z,98856.34
2022-10-30T22:22:01.693Z,98851.91
2022-10-30T22:24:28.317Z,98854.69
2022-10-30T22:26:54.982Z,98850.13
2022-10-30T22:29:21.621Z,98857.06
2022-10-30T22:31:49.192Z,98859.03
2022-10-30T22:34:15.875Z,98860.94
2022-10-30T22:36:42.524Z,98857.50
2022-10-30T22:39:12.584Z,98855.03
2022-10-30T22:41:40.239Z,98848.06
2022-10-30T22:44:11.010Z,98846.41
2022-10-30T22:46:38.190Z,98843.19
2022-10-30T22:49:05.388Z,98843.19
2022-10-30T22:51:34.272Z,98853.00
2022-10-30T22:54:02.833Z,98852.81
2022-10-30T22:56:31.580Z,98848.47
2022-10-30T22:59:01.054Z,98853.84
2022-10-30T23:01:30.276Z,98860.22
2022-10-30T23:03:59.106Z,98857.44
2022-10-30T23:06:30.385Z,98856.06
2022-10-30T23:08:59.793Z,98859.81
2022-10-30T23:11:28.274Z,98863.69
2022-10-30T23:13:55.583Z,98863.09
2022-10-30T23:16:24.540Z,98868.59
2022-10-30T23:18:53.465Z,98872.53
2022-10-30T23:21:22.924Z,98873.56
2022-10-30T23:23:50.008Z,98874.53
2022-10-30T23:26:28.990Z,98877.25
2022-10-30T23:28:57.037Z,98878.31
2022-10-30T23:31:33.463Z,98885.53
2022-10-30T23:34:02.695Z,98885.53
2022-10-30T23:36:29.898Z,98878.56
2022-10-30T23:38:59.321Z,98877.88
2022-10-30T23:41:28.828Z,98877.97
2022-10-30T23:43:57.777Z,98883.31
2022-10-30T23:46:24.991Z,98882.69
2022-10-30T23:48:51.801Z,98889.47
2022-10-30T23:51:19.020Z,98885.78
2022-10-30T23:53:45.713Z,98877.78
2022-10-30T23:56:12.794Z,98884.88
2022-10-30T23:58:43.498Z,98889.06
